createdAt,value
2022-12-07T00:00:45.084Z,79.51
2022-12-07T00:05:36.627Z,79.21
2022-12-07T00:10:28.212Z,79.33
2022-12-07T00:15:19.766Z,79.13
2022-12-07T00:20:11.446Z,78.89
2022-12-07T00:25:03.011Z,79.79
2022-12-07T00:29:55.960Z,79.50
2022-12-07T00:34:47.679Z,79.46
2022-12-07T00:39:39.423Z,80.29
2022-12-07T00:44:30.998Z,80.74
2022-12-07T00:49:22.671Z,81.14
2022-12-07T00:54:14.221Z,79.91
2022-12-07T00:59:05.909Z,78.86
2022-12-07T01:03:57.530Z,78.38
2022-12-07T01:08:49.668Z,78.28
2022-12-07T01:13:41.871Z,78.31
2022-12-07T01:18:35.534Z,78.12
2022-12-07T01:23:27.620Z,77.69
2022-12-07T01:28:19.175Z,78.65
2022-12-07T01:33:10.710Z,78.89
2022-12-07T01:38:02.233Z,78.64
2022-12-07T01:42:53.913Z,78.54
2022-12-07T01:47:50.697Z,78.89
2022-12-07T01:52:44.737Z,78.08
2022-12-07T01:57:44.250Z,79.06
2022-12-07T02:02:45.061Z,78.96
2022-12-07T02:07:39.117Z,79.40
2022-12-07T02:12:30.701Z,79.48
2022-12-07T02:17:31.602Z,80.10
2022-12-07T02:22:41.832Z,79.05
2022-12-07T02:27:57.627Z,79.23
2022-12-07T02:33:12.233Z,79.77
2022-12-07T02:38:08.401Z,79.96
2022-12-07T02:43:11.104Z,79.26
2022-12-07T02:48:04.925Z,79.60
2022-12-07T02:52:56.861Z,80.53
2022-12-07T02:58:34.264Z,80.41
2022-12-07T03:03:26.651Z,80.61
2022-12-07T03:08:38.046Z,79.63
2022-12-07T03:13:34.782Z,78.98
2022-12-07T03:18:30.828Z,78.84
2022-12-07T03:23:26.217Z,78.80
2022-12-07T03:28:22.138Z,79.57
2022-12-07T03:33:13.628Z,78.61
2022-12-07T03:38:43.162Z,78.96
2022-12-07T03:43:36.845Z,79.25
2022-12-07T03:48:52.974Z,79.39
2022-12-07T03:54:01.533Z,78.64
2022-12-07T03:58:54.342Z,79.20
2022-12-07T04:03:46.483Z,79.70
2022-12-07T04:08:38.025Z,79.44
2022-12-07T04:13:29.573Z,79.91
2022-12-07T04:18:21.146Z,79.38
2022-12-07T04:23:12.652Z,79.00
2022-12-07T04:28:04.705Z,79.67
2022-12-07T04:32:56.288Z,80.28
2022-12-07T04:37:47.889Z,80.63
2022-12-07T04:42:39.482Z,80.88
2022-12-07T04:47:31.046Z,80.21
2022-12-07T04:52:22.688Z,80.36
2022-12-07T04:57:14.319Z,80.49
2022-12-07T05:02:05.988Z,80.45
2022-12-07T05:06:57.621Z,80.58
2022-12-07T05:11:49.228Z,79.99
2022-12-07T05:16:41.901Z,80.16
2022-12-07T05:21:33.857Z,80.10
2022-12-07T05:26:26.011Z,80.43
2022-12-07T05:31:17.568Z,79.96
2022-12-07T05:36:09.278Z,79.58
2022-12-07T05:41:02.814Z,79.85
2022-12-07T05:45:54.349Z,79.60
2022-12-07T05:50:48.924Z,79.93
2022-12-07T05:55:40.479Z,80.88
2022-12-07T06:00:32.728Z,80.95
2022-12-07T06:05:24.461Z,81.31
2022-12-07T06:10:16.491Z,81.14
2022-12-07T06:15:08.469Z,81.42
2022-12-07T06:20:00.299Z,81.89
2022-12-07T06:24:52.232Z,82.97
2022-12-07T06:29:43.831Z,83.28
2022-12-07T06:34:35.582Z,83.77
2022-12-07T06:39:28.879Z,83.26
2022-12-07T06:44:21.598Z,82.70
2022-12-07T06:49:13.129Z,82.53
2022-12-07T06:54:05.073Z,82.24
2022-12-07T06:58:56.741Z,81.79
2022-12-07T07:03:48.508Z,81.58
2022-12-07T07:08:40.723Z,81.89
2022-12-07T07:13:32.498Z,81.58
2022-12-07T07:18:24.418Z,82.04
2022-12-07T07:23:15.971Z,82.27
2022-12-07T07:28:07.704Z,82.37
2022-12-07T07:33:00.982Z,81.31
2022-12-07T07:37:52.547Z,81.38
2022-12-07T07:42:44.133Z,81.49
2022-12-07T07:47:35.712Z,82.06
2022-12-07T07:52:27.385Z,82.45
2022-12-07T07:57:18.999Z,81.66
2022-12-07T08:02:15.731Z,80.64
2022-12-07T08:07:07.308Z,79.25
2022-12-07T08:11:58.849Z,79.19
2022-12-07T08:16:50.650Z,78.53
2022-12-07T08:21:42.233Z,79.27
2022-12-07T08:26:34.613Z,79.48
2022-12-07T08:31:26.649Z,78.70
2022-12-07T08:36:19.128Z,77.99
2022-12-07T08:41:10.697Z,76.83
2022-12-07T08:46:22.648Z,75.90
2022-12-07T08:51:14.483Z,74.78
2022-12-07T08:56:07.293Z,75.03
2022-12-07T09:00:58.953Z,74.56
2022-12-07T09:05:50.633Z,72.88
2022-12-07T09:10:42.299Z,72.72
2022-12-07T09:15:33.951Z,71.49
2022-12-07T09:20:27.987Z,71.49
2022-12-07T09:25:20.289Z,71.67
2022-12-07T09:30:12.074Z,70.98
2022-12-07T09:35:03.833Z,72.44
2022-12-07T09:39:55.430Z,72.64
2022-12-07T09:44:47.013Z,71.64
2022-12-07T09:49:38.621Z,71.86
2022-12-07T09:54:31.807Z,72.09
2022-12-07T09:59:23.739Z,71.62
2022-12-07T10:04:19.455Z,70.63
2022-12-07T10:09:16.823Z,68.57
2022-12-07T10:14:14.099Z,68.86
2022-12-07T10:19:38.053Z,67.95
2022-12-07T10:24:30.171Z,67.83
2022-12-07T10:29:24.942Z,67.96
2022-12-07T10:34:35.303Z,68.49
2022-12-07T10:39:29.611Z,68.87
2022-12-07T10:44:24.269Z,67.85
2022-12-07T10:49:48.259Z,67.25
2022-12-07T10:54:54.793Z,65.69
2022-12-07T10:59:55.611Z,65.63
2022-12-07T11:05:03.440Z,65.84
2022-12-07T11:10:09.487Z,66.28
2022-12-07T11:15:14.760Z,66.94
2022-12-07T11:20:34.318Z,66.39
2022-12-07T11:25:44.499Z,65.58
2022-12-07T11:30:51.793Z,65.99
2022-12-07T11:36:06.243Z,65.76
2022-12-07T11:41:14.919Z,66.11
2022-12-07T11:46:15.409Z,66.61
2022-12-07T11:51:13.400Z,66.78
2022-12-07T11:56:12.345Z,67.52
2022-12-07T12:01:21.132Z,68.79
2022-12-07T12:06:13.013Z,68.68
2022-12-07T12:11:30.816Z,69.45
2022-12-07T12:17:16.528Z,69.62
2022-12-07T12:22:19.495Z,70.00
2022-12-07T12:27:22.752Z,70.20
2022-12-07T12:32:33.607Z,70.23
2022-12-07T12:37:34.430Z,69.86
2022-12-07T12:42:54.606Z,69.05
2022-12-07T12:48:01.223Z,68.06
2022-12-07T12:52:59.767Z,68.43
2022-12-07T12:58:30.924Z,67.43
2022-12-07T13:03:27.846Z,67.71
2022-12-07T13:08:30.610Z,67.92
2022-12-07T13:13:30.944Z,68.72
2022-12-07T13:18:41.370Z,67.94
2022-12-07T13:23:45.546Z,68.95
2022-12-07T13:28:41.631Z,68.41
2022-12-07T13:33:37.894Z,68.09
2022-12-07T13:38:32.702Z,68.59
2022-12-07T13:43:24.237Z,68.73
2022-12-07T13:48:43.453Z,68.09
2022-12-07T13:53:46.774Z,67.02
2022-12-07T13:58:38.643Z,66.78
2022-12-07T14:03:35.684Z,67.05
2022-12-07T14:08:31.421Z,67.35
2022-12-07T14:13:40.418Z,66.91
2022-12-07T14:18:39.764Z,67.40
2022-12-07T14:23:31.403Z,68.19
2022-12-07T14:28:32.457Z,69.13
2022-12-07T14:33:25.592Z,69.52
2022-12-07T14:38:19.514Z,69.28
2022-12-07T14:43:15.053Z,69.58
2022-12-07T14:53:30.541Z,70.94
2022-12-07T14:58:22.057Z,71.09
2022-12-07T15:03:14.152Z,72.29
2022-12-07T15:08:06.592Z,72.54
2022-12-07T15:13:22.358Z,74.07
2022-12-07T15:18:14.063Z,74.81
2022-12-07T15:23:05.703Z,76.07
2022-12-07T15:27:57.446Z,75.69
2022-12-07T15:32:52.758Z,75.75
2022-12-07T15:37:44.358Z,75.60
2022-12-07T15:42:39.310Z,76.68
2022-12-07T15:53:02.740Z,77.71
2022-12-07T15:57:54.299Z,79.33
2022-12-07T16:02:45.955Z,80.38
2022-12-07T16:07:37.516Z,81.18
2022-12-07T16:12:29.081Z,81.95
2022-12-07T16:17:20.669Z,81.62
2022-12-07T16:22:12.273Z,81.38
2022-12-07T16:27:03.880Z,81.23
2022-12-07T16:31:55.488Z,80.16
2022-12-07T16:37:04.562Z,79.47
2022-12-07T16:41:56.508Z,79.17
2022-12-07T16:46:48.201Z,78.65
2022-12-07T16:51:40.241Z,77.08
2022-12-07T16:56:31.820Z,77.77
2022-12-07T17:01:24.090Z,76.70
2022-12-07T17:06:18.914Z,76.88
2022-12-07T17:11:15.873Z,76.16
2022-12-07T17:16:07.663Z,77.11
2022-12-07T17:21:08.110Z,76.98
2022-12-07T17:26:22.370Z,77.77
2022-12-07T17:31:15.951Z,77.36
2022-12-07T17:36:19.343Z,76.04
2022-12-07T17:41:39.422Z,76.47
2022-12-07T17:46:31.260Z,77.08
2022-12-07T17:51:42.269Z,77.54
2022-12-07T17:56:33.795Z,77.65
2022-12-07T18:01:28.536Z,77.39
2022-12-07T18:06:22.966Z,77.66
2022-12-07T18:11:14.580Z,77.81
2022-12-07T18:16:09.458Z,78.17
2022-12-07T18:21:25.505Z,77.71
2022-12-07T18:26:17.877Z,77.49
2022-12-07T18:31:17.025Z,78.81
2022-12-07T18:36:09.450Z,77.73
2022-12-07T18:41:02.080Z,77.28
2022-12-07T18:45:56.347Z,77.81
2022-12-07T18:51:00.888Z,77.86
2022-12-07T18:56:07.625Z,78.79
2022-12-07T19:00:59.276Z,79.06
2022-12-07T19:05:51.181Z,78.83
2022-12-07T19:10:42.715Z,78.70
2022-12-07T19:15:34.515Z,78.24
2022-12-07T19:20:26.108Z,78.10
2022-12-07T19:25:17.755Z,78.37
2022-12-07T19:30:11.388Z,77.43
2022-12-07T19:35:03.250Z,77.63
2022-12-07T19:39:55.297Z,77.70
2022-12-07T19:44:47.005Z,77.69
2022-12-07T19:49:38.690Z,77.85
2022-12-07T19:54:31.727Z,78.29
2022-12-07T19:59:26.047Z,78.87
2022-12-07T20:04:20.590Z,78.64
2022-12-07T20:09:12.721Z,79.57
2022-12-07T20:14:10.096Z,79.23
2022-12-07T20:19:02.464Z,79.40
2022-12-07T20:23:54.052Z,79.15
2022-12-07T20:28:46.650Z,78.91
2022-12-07T20:33:38.410Z,78.95
2022-12-07T20:38:32.297Z,80.09
2022-12-07T20:43:23.970Z,80.26
2022-12-07T20:48:16.321Z,79.61
2022-12-07T20:53:09.312Z,80.50
2022-12-07T20:58:00.989Z,79.53
2022-12-07T21:02:53.047Z,80.29
2022-12-07T21:07:45.335Z,80.18
2022-12-07T21:12:37.455Z,79.76
2022-12-07T21:17:30.231Z,79.82
2022-12-07T21:22:21.808Z,79.20
2022-12-07T21:27:13.652Z,78.91
2022-12-07T21:32:05.829Z,78.95
2022-12-07T21:36:57.572Z,78.90
2022-12-07T21:41:49.085Z,79.75
2022-12-07T21:46:41.221Z,79.58
2022-12-07T21:51:33.614Z,78.63
2022-12-07T21:56:28.969Z,79.49
2022-12-07T22:01:23.677Z,79.22
2022-12-07T22:06:18.025Z,78.85
2022-12-07T22:11:10.796Z,79.00
2022-12-07T22:16:03.237Z,78.84
2022-12-07T22:21:00.320Z,78.86
2022-12-07T22:25:51.821Z,78.88
2022-12-07T22:30:43.413Z,78.48
2022-12-07T22:35:35.011Z,77.91
2022-12-07T22:40:26.621Z,78.24
2022-12-07T22:45:18.137Z,78.77
2022-12-07T22:50:10.243Z,79.02
2022-12-07T22:55:02.398Z,79.16
2022-12-07T22:59:54.236Z,79.19
2022-12-07T23:04:45.851Z,78.24
2022-12-07T23:09:37.455Z,79.13
2022-12-07T23:14:34.905Z,78.33
2022-12-07T23:19:27.514Z,78.39
2022-12-07T23:24:19.192Z,78.96
2022-12-07T23:29:17.249Z,78.52
2022-12-07T23:34:10.271Z,77.68
2022-12-07T23:39:01.950Z,77.30
2022-12-07T23:43:55.154Z,78.10
2022-12-07T23:48:48.178Z,77.92
2022-12-07T23:53:43.138Z,77.50
2022-12-07T23:58:34.739Z,78.48
